createdAt,value
2022-08-15T00:04:01.884Z,20.23
2022-08-15T00:06:39.140Z,20.24
2022-08-15T00:09:23.579Z,20.24
2022-08-15T00:11:57.322Z,20.26
2022-08-15T00:14:33.002Z,20.25
2022-08-15T00:17:04.341Z,20.25
2022-08-15T00:19:40.494Z,20.26
2022-08-15T00:22:18.723Z,20.25
2022-08-15T00:24:51.397Z,20.24
2022-08-15T00:27:25.631Z,20.23
2022-08-15T00:29:56.003Z,20.23
2022-08-15T00:33:02.203Z,20.24
2022-08-15T00:35:38.981Z,20.21
2022-08-15T00:38:21.597Z,20.24
2022-08-15T00:41:21.041Z,20.25
2022-08-15T00:43:57.552Z,20.24
2022-08-15T00:46:26.453Z,20.13
2022-08-15T00:48:56.664Z,20.21
2022-08-15T00:51:44.406Z,20.16
2022-08-15T00:54:56.287Z,20.11
2022-08-15T00:57:17.409Z,20.12
2022-08-15T01:00:08.498Z,20.06
2022-08-15T01:02:38.312Z,20.09
2022-08-15T01:05:16.254Z,20.10
2022-08-15T01:07:46.580Z,20.05
2022-08-15T01:10:19.733Z,20.08
2022-08-15T01:12:53.442Z,20.06
2022-08-15T01:15:28.639Z,20.07
2022-08-15T01:18:33.873Z,20.08
2022-08-15T01:20:57.868Z,20.07
2022-08-15T01:23:39.627Z,20.08
2022-08-15T01:26:41.029Z,20.10
2022-08-15T01:29:11.335Z,20.13
2022-08-15T01:31:48.302Z,20.12
2022-08-15T01:34:18.867Z,20.19
2022-08-15T01:36:49.866Z,20.20
2022-08-15T01:39:39.904Z,20.19
2022-08-15T01:42:43.320Z,20.24
2022-08-15T01:45:17.344Z,20.26
2022-08-15T01:47:53.700Z,20.19
2022-08-15T01:50:32.195Z,20.27
2022-08-15T01:53:09.602Z,20.32
2022-08-15T01:56:35.277Z,20.30
2022-08-15T01:59:06.036Z,20.35
2022-08-15T02:01:47.476Z,20.34
2022-08-15T02:04:28.103Z,20.37
2022-08-15T02:06:57.178Z,20.36
2022-08-15T02:09:38.430Z,20.39
2022-08-15T02:13:01.933Z,20.38
2022-08-15T02:15:02.047Z,20.40
2022-08-15T02:17:32.001Z,20.46
2022-08-15T02:20:01.003Z,20.46
2022-08-15T02:22:29.514Z,20.49
2022-08-15T02:24:58.956Z,20.48
2022-08-15T02:27:35.434Z,20.48
2022-08-15T02:30:17.058Z,20.46
2022-08-15T02:32:47.771Z,20.46
2022-08-15T02:35:18.775Z,20.47
2022-08-15T02:37:58.040Z,20.45
2022-08-15T02:40:46.608Z,20.44
2022-08-15T02:43:19.801Z,20.44
2022-08-15T02:45:56.940Z,20.35
2022-08-15T02:48:37.046Z,20.28
2022-08-15T02:51:10.573Z,20.32
2022-08-15T02:53:47.883Z,20.34
2022-08-15T02:56:17.644Z,20.29
2022-08-15T02:58:45.274Z,20.34
2022-08-15T03:01:15.775Z,20.39
2022-08-15T03:03:48.145Z,20.38
2022-08-15T03:06:30.934Z,20.37
2022-08-15T03:09:01.879Z,20.37
2022-08-15T03:11:56.214Z,20.36
2022-08-15T03:14:33.536Z,20.36
2022-08-15T03:17:07.107Z,20.35
2022-08-15T03:19:39.426Z,20.32
2022-08-15T03:22:09.340Z,20.29
2022-08-15T03:24:37.362Z,20.16
2022-08-15T03:27:05.545Z,20.22
2022-08-15T03:29:34.265Z,20.20
2022-08-15T03:32:14.260Z,20.01
2022-08-15T03:34:58.061Z,20.15
2022-08-15T03:37:25.122Z,20.14
2022-08-15T03:39:54.992Z,20.12
2022-08-15T03:42:22.621Z,20.04
2022-08-15T03:44:50.448Z,19.96
2022-08-15T03:47:18.349Z,19.99
2022-08-15T03:50:23.171Z,19.93
2022-08-15T03:52:33.916Z,19.90
2022-08-15T03:55:15.709Z,19.87
2022-08-15T03:58:02.858Z,19.90
2022-08-15T04:00:51.671Z,19.92
2022-08-15T04:03:26.515Z,19.97
2022-08-15T04:05:58.695Z,20.03
2022-08-15T04:08:43.962Z,20.11
2022-08-15T04:11:19.921Z,20.13
2022-08-15T04:13:51.698Z,20.18
2022-08-15T04:17:01.586Z,20.27
2022-08-15T04:19:06.674Z,20.42
2022-08-15T04:21:50.562Z,20.59
2022-08-15T04:24:25.935Z,20.69
2022-08-15T04:26:56.254Z,20.65
2022-08-15T04:29:23.313Z,20.82
2022-08-15T04:31:54.597Z,20.95
2022-08-15T04:34:51.763Z,21.08
2022-08-15T04:37:12.487Z,21.18
2022-08-15T04:39:40.621Z,21.35
2022-08-15T04:42:08.555Z,21.55
2022-08-15T04:44:38.749Z,21.79
2022-08-15T04:47:06.067Z,21.92
2022-08-15T04:49:33.561Z,22.12
2022-08-15T04:52:12.534Z,22.38
2022-08-15T04:54:58.243Z,22.51
2022-08-15T04:57:26.022Z,22.77
2022-08-15T05:00:04.159Z,22.96
2022-08-15T05:02:53.538Z,23.13
2022-08-15T05:05:19.932Z,23.18
2022-08-15T05:07:59.009Z,23.33
2022-08-15T05:10:32.889Z,23.56
2022-08-15T05:13:18.673Z,23.77
2022-08-15T05:15:53.540Z,24.00
2022-08-15T05:18:22.992Z,24.18
2022-08-15T05:20:52.170Z,23.99
2022-08-15T05:23:34.027Z,24.36
2022-08-15T05:26:37.596Z,24.57
2022-08-15T05:28:58.064Z,24.90
2022-08-15T05:31:32.475Z,25.13
2022-08-15T05:34:04.602Z,25.32
2022-08-15T05:36:37.364Z,25.53
2022-08-15T05:39:22.328Z,25.62
2022-08-15T05:42:31.083Z,25.87
2022-08-15T05:45:10.572Z,25.96
2022-08-15T05:47:50.607Z,26.09
2022-08-15T05:50:26.308Z,26.22
2022-08-15T05:53:38.516Z,26.09
2022-08-15T05:56:37.094Z,26.27
2022-08-15T05:59:09.256Z,26.26
2022-08-15T06:02:04.134Z,26.63
2022-08-15T06:04:53.195Z,27.03
2022-08-15T06:07:21.363Z,27.07
2022-08-15T06:09:57.338Z,27.30
2022-08-15T06:12:48.023Z,27.35
2022-08-15T06:15:32.882Z,27.44
2022-08-15T06:18:05.992Z,27.04
2022-08-15T06:20:52.137Z,27.24
2022-08-15T06:23:49.664Z,27.42
2022-08-15T06:26:51.755Z,27.81
2022-08-15T06:29:44.159Z,27.79
2022-08-15T06:32:29.185Z,28.26
2022-08-15T06:35:14.934Z,28.67
2022-08-15T06:38:04.083Z,29.00
2022-08-15T06:40:52.788Z,29.12
2022-08-15T06:43:20.094Z,29.35
2022-08-15T06:45:50.726Z,29.00
2022-08-15T06:48:54.707Z,28.99
2022-08-15T06:51:12.701Z,29.32
2022-08-15T06:53:56.429Z,29.35
2022-08-15T06:56:38.563Z,29.12
2022-08-15T06:59:29.843Z,29.15
2022-08-15T07:02:23.316Z,29.49
2022-08-15T07:05:43.143Z,30.00
2022-08-15T07:08:28.871Z,30.43
2022-08-15T07:11:13.972Z,30.23
2022-08-15T07:14:21.014Z,30.51
2022-08-15T07:17:09.920Z,30.18
2022-08-15T07:19:38.638Z,30.12
2022-08-15T07:22:08.685Z,30.27
2022-08-15T07:24:37.150Z,30.29
2022-08-15T07:27:16.470Z,29.71
2022-08-15T07:29:57.568Z,30.17
2022-08-15T07:32:36.909Z,29.62
2022-08-15T07:35:10.402Z,30.39
2022-08-15T07:37:40.815Z,29.94
2022-08-15T07:40:44.403Z,29.59
2022-08-15T07:43:26.835Z,29.22
2022-08-15T07:46:23.663Z,29.89
2022-08-15T07:49:11.244Z,30.45
2022-08-15T07:51:46.496Z,30.45
2022-08-15T07:54:51.500Z,30.66
2022-08-15T07:57:54.019Z,30.47
2022-08-15T08:00:44.885Z,30.02
2022-08-15T08:03:34.399Z,30.26
2022-08-15T08:06:34.137Z,30.31
2022-08-15T08:09:32.444Z,30.12
2022-08-15T08:12:06.652Z,30.32
2022-08-15T08:14:54.716Z,30.48
2022-08-15T08:17:46.296Z,30.44
2022-08-15T08:20:29.313Z,30.48
2022-08-15T08:23:03.834Z,30.85
2022-08-15T08:26:03.642Z,31.44
2022-08-15T08:28:29.232Z,31.67
2022-08-15T08:31:29.402Z,31.85
2022-08-15T08:34:09.938Z,31.72
2022-08-15T08:36:53.730Z,31.13
2022-08-15T08:39:33.151Z,31.37
2022-08-15T08:42:28.342Z,31.82
2022-08-15T08:45:01.132Z,31.79
2022-08-15T08:48:06.923Z,31.55
2022-08-15T08:50:55.542Z,31.89
2022-08-15T08:53:30.081Z,32.28
2022-08-15T08:56:34.587Z,32.72
2022-08-15T08:59:19.171Z,33.09
2022-08-15T09:01:52.643Z,33.38
2022-08-15T09:04:25.537Z,33.21
2022-08-15T09:06:56.553Z,33.07
2022-08-15T09:09:30.400Z,32.43
2022-08-15T09:12:39.896Z,32.38
2022-08-15T09:15:19.839Z,32.28
2022-08-15T09:17:59.876Z,32.21
2022-08-15T09:20:36.830Z,31.89
2022-08-15T09:23:09.881Z,31.70
2022-08-15T09:25:44.355Z,31.61
2022-08-15T09:28:33.151Z,31.48
2022-08-15T09:31:23.690Z,32.04
2022-08-15T09:33:55.548Z,31.83
2022-08-15T09:36:52.043Z,31.54
2022-08-15T09:39:25.767Z,31.64
2022-08-15T09:42:35.820Z,32.07
2022-08-15T09:45:45.602Z,32.59
2022-08-15T09:48:48.787Z,32.72
2022-08-15T09:51:21.345Z,32.79
2022-08-15T09:54:28.657Z,32.93
2022-08-15T09:57:32.207Z,33.13
2022-08-15T10:00:05.691Z,33.04
2022-08-15T10:02:53.054Z,33.06
2022-08-15T10:05:37.891Z,33.17
2022-08-15T10:08:07.641Z,33.37
2022-08-15T10:10:37.447Z,33.52
2022-08-15T10:13:31.125Z,33.87
2022-08-15T10:16:00.342Z,33.99
2022-08-15T10:18:27.753Z,33.88
2022-08-15T10:20:57.693Z,34.14
2022-08-15T10:23:41.918Z,34.36
2022-08-15T10:26:33.595Z,34.46
2022-08-15T10:29:15.374Z,34.63
2022-08-15T10:32:38.020Z,34.64
2022-08-15T10:35:04.952Z,34.50
2022-08-15T10:37:44.457Z,34.66
2022-08-15T10:40:42.316Z,34.73
2022-08-15T10:43:19.872Z,34.22
2022-08-15T10:45:57.028Z,33.50
2022-08-15T10:48:54.694Z,33.42
2022-08-15T10:52:06.547Z,33.63
2022-08-15T10:54:57.803Z,33.73
2022-08-15T10:57:33.714Z,33.43
2022-08-15T11:00:37.498Z,32.87
2022-08-15T11:03:14.990Z,32.51
2022-08-15T11:05:45.257Z,32.06
2022-08-15T11:08:17.882Z,31.86
2022-08-15T11:10:45.443Z,31.59
2022-08-15T11:13:16.272Z,31.30
2022-08-15T11:15:52.276Z,31.11
2022-08-15T11:18:37.196Z,31.36
2022-08-15T11:21:25.321Z,31.36
2022-08-15T11:23:58.607Z,31.09
2022-08-15T11:26:31.969Z,31.01
2022-08-15T11:29:17.085Z,30.90
2022-08-15T11:31:56.237Z,30.82
2022-08-15T11:34:42.543Z,31.12
2022-08-15T11:37:42.160Z,31.44
2022-08-15T11:40:27.551Z,31.82
2022-08-15T11:42:58.654Z,32.21
2022-08-15T11:45:50.471Z,32.52
2022-08-15T11:48:35.965Z,32.51
2022-08-15T11:51:10.355Z,32.58
2022-08-15T11:53:47.027Z,32.80
2022-08-15T11:56:34.712Z,32.41
2022-08-15T11:59:23.375Z,32.50
2022-08-15T12:02:04.958Z,32.40
2022-08-15T12:04:40.329Z,32.60
2022-08-15T12:07:44.847Z,32.86
2022-08-15T12:10:32.707Z,33.08
2022-08-15T12:13:01.398Z,33.20
2022-08-15T12:15:33.199Z,33.21
2022-08-15T12:18:46.425Z,32.64
2022-08-15T12:21:19.741Z,32.20
2022-08-15T12:23:57.681Z,32.44
2022-08-15T12:26:40.259Z,32.26
2022-08-15T12:29:19.145Z,31.96
2022-08-15T12:31:50.472Z,31.77
2022-08-15T12:34:28.581Z,32.06
2022-08-15T12:41:00.943Z,32.01
2022-08-15T12:43:41.250Z,31.94
2022-08-15T12:46:09.509Z,31.72
2022-08-15T12:48:37.360Z,31.66
2022-08-15T12:51:09.925Z,31.60
2022-08-15T12:53:40.098Z,32.05
2022-08-15T12:56:30.833Z,32.21
2022-08-15T12:59:02.775Z,32.43
2022-08-15T13:01:31.896Z,32.53
2022-08-15T13:04:03.873Z,32.63
2022-08-15T13:06:56.445Z,32.78
2022-08-15T13:09:26.971Z,32.71
2022-08-15T13:11:55.133Z,32.75
2022-08-15T13:14:24.883Z,32.69
2022-08-15T13:17:09.977Z,32.68
2022-08-15T13:20:13.180Z,32.52
2022-08-15T13:23:03.541Z,32.60
2022-08-15T13:25:33.146Z,32.52
2022-08-15T13:28:06.080Z,32.74
2022-08-15T13:30:41.670Z,32.74
2022-08-15T13:33:09.624Z,32.67
2022-08-15T13:35:58.333Z,32.60
2022-08-15T13:38:31.559Z,32.45
2022-08-15T13:41:02.373Z,32.56
2022-08-15T13:43:55.839Z,32.49
2022-08-15T13:46:35.780Z,32.44
2022-08-15T13:49:05.108Z,32.61
2022-08-15T13:52:23.407Z,32.53
2022-08-15T13:54:33.594Z,32.44
2022-08-15T13:57:24.897Z,32.60
2022-08-15T13:59:57.390Z,32.67
2022-08-15T14:02:35.869Z,32.62
2022-08-15T14:05:08.514Z,32.52
2022-08-15T14:07:53.232Z,32.59
2022-08-15T14:11:11.268Z,32.69
2022-08-15T14:13:22.231Z,32.58
2022-08-15T14:16:56.439Z,32.56
2022-08-15T14:19:03.588Z,32.50
2022-08-15T14:21:31.981Z,32.52
2022-08-15T14:24:03.063Z,32.45
2022-08-15T14:27:07.370Z,32.59
2022-08-15T14:29:33.676Z,32.52
2022-08-15T14:35:16.946Z,32.39
2022-08-15T14:37:55.573Z,32.15
2022-08-15T14:40:29.404Z,32.13
2022-08-15T14:42:58.691Z,32.17
2022-08-15T14:46:33.424Z,32.12
2022-08-15T14:48:46.932Z,32.12
2022-08-15T14:52:06.188Z,32.15
2022-08-15T14:54:44.122Z,32.12
2022-08-15T14:57:15.776Z,31.98
2022-08-15T14:59:58.767Z,32.01
2022-08-15T15:02:36.603Z,31.91
2022-08-15T15:05:11.202Z,31.94
2022-08-15T15:07:53.749Z,31.86
2022-08-15T15:10:56.373Z,31.84
2022-08-15T15:13:32.948Z,31.79
2022-08-15T15:16:39.128Z,31.78
2022-08-15T15:18:58.973Z,31.81
2022-08-15T15:21:29.912Z,31.82
2022-08-15T15:23:59.052Z,31.72
2022-08-15T15:26:36.645Z,31.72
2022-08-15T15:29:14.502Z,31.69
2022-08-15T15:31:43.212Z,31.68
2022-08-15T15:34:15.022Z,31.63
2022-08-15T15:36:46.597Z,31.59
2022-08-15T15:39:45.507Z,31.49
2022-08-15T15:42:17.014Z,31.38
2022-08-15T15:44:46.624Z,31.35
2022-08-15T15:47:25.698Z,31.32
2022-08-15T15:49:56.603Z,31.26
2022-08-15T15:52:32.394Z,31.21
2022-08-15T15:55:06.106Z,31.15
2022-08-15T15:58:00.747Z,31.09
2022-08-15T16:00:28.794Z,31.00
2022-08-15T16:03:02.125Z,30.94
2022-08-15T16:06:04.502Z,30.86
2022-08-15T16:08:32.671Z,30.74
2022-08-15T16:11:42.160Z,30.69
2022-08-15T16:14:25.503Z,30.60
2022-08-15T16:17:03.367Z,30.51
2022-08-15T16:19:32.444Z,30.41
2022-08-15T16:22:19.609Z,30.31
2022-08-15T16:25:02.683Z,30.17
2022-08-15T16:27:49.697Z,30.14
2022-08-15T16:30:30.573Z,30.08
2022-08-15T16:33:02.486Z,29.97
2022-08-15T16:35:45.683Z,29.84
2022-08-15T16:39:06.624Z,29.77
2022-08-15T16:42:01.601Z,29.63
2022-08-15T16:44:32.413Z,29.55
2022-08-15T16:47:25.560Z,29.44
2022-08-15T16:50:28.703Z,29.32
2022-08-15T16:53:19.792Z,29.25
2022-08-15T16:56:01.884Z,29.14
2022-08-15T16:58:38.254Z,29.08
2022-08-15T17:01:14.466Z,28.99
2022-08-15T17:03:45.159Z,28.92
2022-08-15T17:06:33.533Z,28.85
2022-08-15T17:09:22.054Z,28.77
2022-08-15T17:12:26.121Z,28.67
2022-08-15T17:15:32.804Z,28.57
2022-08-15T17:18:14.600Z,28.48
2022-08-15T17:20:49.991Z,28.42
2022-08-15T17:23:43.349Z,28.32
2022-08-15T17:26:53.580Z,28.22
2022-08-15T17:29:16.749Z,28.15
2022-08-15T17:31:56.772Z,28.09
2022-08-15T17:34:40.696Z,28.01
2022-08-15T17:37:09.788Z,27.92
2022-08-15T17:39:53.024Z,27.80
2022-08-15T17:42:24.032Z,27.69
2022-08-15T17:45:15.101Z,27.55
2022-08-15T17:47:53.535Z,27.36
2022-08-15T17:50:47.957Z,27.14
2022-08-15T17:53:51.889Z,26.81
2022-08-15T17:56:23.524Z,26.57
2022-08-15T17:58:59.382Z,26.51
2022-08-15T18:01:31.733Z,26.49
2022-08-15T18:04:04.743Z,26.30
2022-08-15T18:06:33.122Z,26.21
2022-08-15T18:09:04.845Z,26.23
2022-08-15T18:11:39.393Z,26.18
2022-08-15T18:14:38.004Z,26.10
2022-08-15T18:17:08.350Z,26.04
2022-08-15T18:19:37.082Z,26.00
2022-08-15T18:22:22.607Z,25.95
2022-08-15T18:24:58.391Z,25.92
2022-08-15T18:27:37.464Z,25.88
2022-08-15T18:30:27.958Z,25.72
2022-08-15T18:33:00.180Z,25.73
2022-08-15T18:35:29.948Z,25.70
2022-08-15T18:38:16.395Z,25.60
2022-08-15T18:41:08.624Z,25.51
2022-08-15T18:43:55.649Z,25.49
2022-08-15T18:46:26.639Z,25.44
2022-08-15T18:49:07.440Z,25.42
2022-08-15T18:51:58.299Z,25.35
2022-08-15T18:54:59.081Z,25.26
2022-08-15T18:57:43.050Z,25.19
2022-08-15T19:00:16.891Z,25.11
2022-08-15T19:02:49.397Z,25.07
2022-08-15T19:05:27.699Z,25.01
2022-08-15T19:08:14.699Z,24.96
2022-08-15T19:10:57.294Z,24.91
2022-08-15T19:16:55.114Z,24.76
2022-08-15T19:19:50.463Z,24.62
2022-08-15T19:22:19.280Z,24.49
2022-08-15T19:24:26.716Z,24.88
2022-08-15T19:24:50.012Z,24.52
2022-08-15T19:27:41.195Z,24.52
2022-08-15T19:30:18.810Z,24.48
2022-08-15T19:32:58.252Z,24.44
2022-08-15T19:35:50.749Z,24.41
2022-08-15T19:38:39.473Z,24.37
2022-08-15T19:41:27.132Z,24.29
2022-08-15T19:44:30.314Z,24.23
2022-08-15T19:47:09.885Z,24.19
2022-08-15T19:50:20.319Z,24.15
2022-08-15T19:53:41.874Z,24.10
2022-08-15T19:56:29.881Z,24.02
2022-08-15T19:59:19.036Z,23.97
2022-08-15T20:02:27.271Z,23.96
2022-08-15T20:05:28.192Z,23.94
2022-08-15T20:08:39.030Z,23.89
2022-08-15T20:11:17.854Z,23.88
2022-08-15T20:14:02.435Z,23.85
2022-08-15T20:17:17.547Z,23.78
2022-08-15T20:19:58.024Z,23.81
2022-08-15T20:22:51.091Z,23.80
2022-08-15T20:25:37.524Z,23.69
2022-08-15T20:28:12.644Z,23.61
2022-08-15T20:31:06.995Z,23.66
2022-08-15T20:33:35.657Z,23.63
2022-08-15T20:36:15.481Z,23.67
2022-08-15T20:38:53.527Z,23.64
2022-08-15T20:41:51.414Z,23.67
2022-08-15T20:44:50.915Z,23.73
2022-08-15T20:47:44.144Z,23.73
2022-08-15T20:50:25.598Z,23.74
2022-08-15T20:52:58.978Z,23.79
2022-08-15T20:55:42.598Z,23.89
2022-08-15T20:58:34.605Z,23.95
2022-08-15T21:01:20.459Z,24.04
2022-08-15T21:04:01.965Z,24.05
2022-08-15T21:06:50.146Z,24.11
2022-08-15T21:09:48.714Z,24.09
2022-08-15T21:12:39.934Z,23.62
2022-08-15T21:15:41.841Z,23.60
2022-08-15T21:18:26.915Z,23.49
2022-08-15T21:21:23.798Z,23.40
2022-08-15T21:24:08.874Z,23.51
2022-08-15T21:26:43.902Z,23.44
2022-08-15T21:29:24.963Z,23.48
2022-08-15T21:31:58.390Z,23.55
2022-08-15T21:34:36.602Z,23.51
2022-08-15T21:37:12.826Z,23.50
2022-08-15T21:39:58.015Z,23.51
2022-08-15T21:42:24.996Z,23.45
2022-08-15T21:45:21.777Z,23.49
2022-08-15T21:47:53.846Z,23.50
2022-08-15T21:50:41.685Z,23.53
2022-08-15T21:53:35.471Z,23.50
2022-08-15T21:56:25.860Z,23.51
2022-08-15T22:00:17.994Z,23.51
2022-08-15T22:02:34.842Z,23.51
2022-08-15T22:05:02.451Z,23.52
2022-08-15T22:07:30.648Z,23.35
2022-08-15T22:10:19.109Z,23.12
2022-08-15T22:12:49.177Z,22.69
2022-08-15T22:15:18.664Z,22.53
2022-08-15T22:17:47.283Z,22.41
2022-08-15T22:20:32.660Z,22.23
2022-08-15T22:23:03.641Z,22.11
2022-08-15T22:25:40.223Z,22.20
2022-08-15T22:28:35.144Z,22.12
2022-08-15T22:31:04.006Z,22.08
2022-08-15T22:33:35.480Z,22.09
2022-08-15T22:36:09.101Z,22.13
2022-08-15T22:38:45.441Z,22.05
2022-08-15T22:41:17.059Z,21.99
2022-08-15T22:44:01.510Z,22.09
2022-08-15T22:46:41.625Z,22.19
2022-08-15T22:49:10.172Z,22.21
2022-08-15T22:51:53.414Z,22.20
2022-08-15T22:54:23.335Z,22.27
2022-08-15T22:56:54.919Z,22.31
2022-08-15T22:59:26.171Z,22.32
2022-08-15T23:02:02.297Z,22.32
2022-08-15T23:04:39.681Z,22.28
2022-08-15T23:07:20.823Z,22.36
2022-08-15T23:09:56.023Z,22.36
2022-08-15T23:12:32.540Z,22.39
2022-08-15T23:15:11.040Z,22.44
2022-08-15T23:17:53.307Z,22.44
2022-08-15T23:20:31.590Z,22.46
2022-08-15T23:23:04.654Z,22.49
2022-08-15T23:25:49.448Z,22.50
2022-08-15T23:28:33.674Z,22.45
2022-08-15T23:31:09.731Z,22.40
2022-08-15T23:33:54.581Z,22.35
2022-08-15T23:37:00.315Z,22.30
2022-08-15T23:39:34.877Z,22.15
2022-08-15T23:42:29.678Z,22.05
2022-08-15T23:44:59.351Z,21.99
2022-08-15T23:47:27.952Z,21.97
2022-08-15T23:49:58.260Z,22.01
2022-08-15T23:52:33.647Z,22.00
2022-08-15T23:55:12.799Z,22.03
2022-08-15T23:57:43.239Z,22.00
